KRWF/RWF METAR and TAF weather

Enter ICAO airport designator
Station Type Date Time Source
KRWF METAR 2019/08/26 07:53 UTC NOAA

KRWF 260753Z AUTO 15010KT 10SM BKN032 18/16 A2979 RMK AO2 SLP085 T01780161


Station Type Date Time Source
KRWF Decoded METAR 2019/08/26 07:53 UTC NOAA

Station name not available
Aug 26, 2019 - 03:53 AM EDT / 2019.08.26 0753 UTC
Wind: from the SSE (150 degrees) at 12 MPH (10 KT):0
Visibility: 10 mile(s):0
Sky conditions: mostly cloudy
Temperature: 64.0 F (17.8 C)
Dew Point: 61.0 F (16.1 C)
Relative Humidity: 89%
Pressure (altimeter): 29.79 in. Hg (1008 hPa)
ob: KRWF 260753Z AUTO 15010KT 10SM BKN032 18/16 A2979 RMK AO2 SLP085 T01780161
cycle: 8

Station Type Date Time Source
KRWF TAF 2019/08/26 06:22 UTC NOAA

TAF KRWF 260520Z 2606/2706 14009KT P6SM VCSH SCT015 OVC035
TEMPO 2607/2611 6SM -SHRA BKN020
FM261100 15010KT 6SM -SHRA BR SCT007 OVC015
TEMPO 2616/2619 4SM TSRA OVC007CB
FM262000 28009KT P6SM OVC025
FM262300 30012G20KT P6SM VCSH FEW030 SCT120

Example: see airport list